sensor_id;sensor_type;location;lat;lon;timestamp;P1;durP1;ratioP1;P2;durP2;ratioP2
75423;SDS011;64005;55.160;36.002;2023-04-06T00:01:19;8.75;;;3.95;;
75423;SDS011;64005;55.160;36.002;2023-04-06T00:03:48;9.05;;;3.45;;
75423;SDS011;64005;55.160;36.002;2023-04-06T00:06:16;9.98;;;3.17;;
75423;SDS011;64005;55.160;36.002;2023-04-06T00:08:44;10.88;;;4.28;;
75423;SDS011;64005;55.160;36.002;2023-04-06T00:11:11;9.15;;;3.80;;
75423;SDS011;64005;55.160;36.002;2023-04-06T00:13:39;7.15;;;3.42;;
75423;SDS011;64005;55.160;36.002;2023-04-06T00:16:06;10.32;;;4.22;;
75423;SDS011;64005;55.160;36.002;2023-04-06T00:18:34;14.98;;;4.10;;
75423;SDS011;64005;55.160;36.002;2023-04-06T00:21:03;9.23;;;4.15;;
75423;SDS011;64005;55.160;36.002;2023-04-06T00:23:31;9.85;;;4.10;;
75423;SDS011;64005;55.160;36.002;2023-04-06T00:25:58;11.93;;;4.10;;
75423;SDS011;64005;55.160;36.002;2023-04-06T00:28:26;10.80;;;4.90;;
75423;SDS011;64005;55.160;36.002;2023-04-06T00:30:55;11.35;;;4.00;;
75423;SDS011;64005;55.160;36.002;2023-04-06T00:33:23;13.20;;;4.45;;
75423;SDS011;64005;55.160;36.002;2023-04-06T00:35:50;14.95;;;4.60;;
75423;SDS011;64005;55.160;36.002;2023-04-06T00:38:20;11.68;;;4.20;;
75423;SDS011;64005;55.160;36.002;2023-04-06T00:40:47;11.80;;;4.38;;
75423;SDS011;64005;55.160;36.002;2023-04-06T00:43:15;11.57;;;4.40;;
75423;SDS011;64005;55.160;36.002;2023-04-06T00:45:42;9.43;;;4.32;;
75423;SDS011;64005;55.160;36.002;2023-04-06T00:48:10;12.40;;;4.07;;
75423;SDS011;64005;55.160;36.002;2023-04-06T00:50:38;9.55;;;4.93;;
75423;SDS011;64005;55.160;36.002;2023-04-06T00:53:06;13.27;;;4.32;;
75423;SDS011;64005;55.160;36.002;2023-04-06T00:55:35;10.45;;;4.60;;
75423;SDS011;64005;55.160;36.002;2023-04-06T00:58:02;10.77;;;3.92;;
75423;SDS011;64005;55.160;36.002;2023-04-06T01:00:31;9.52;;;4.40;;
75423;SDS011;64005;55.160;36.002;2023-04-06T01:02:59;10.40;;;4.45;;
75423;SDS011;64005;55.160;36.002;2023-04-06T01:05:27;10.18;;;4.25;;
75423;SDS011;64005;55.160;36.002;2023-04-06T01:07:54;13.63;;;5.10;;
75423;SDS011;64005;55.160;36.002;2023-04-06T01:10:22;9.43;;;4.38;;
75423;SDS011;64005;55.160;36.002;2023-04-06T01:12:52;10.98;;;5.10;;
75423;SDS011;64005;55.160;36.002;2023-04-06T01:15:20;11.43;;;4.95;;
75423;SDS011;64005;55.160;36.002;2023-04-06T01:17:48;9.93;;;4.25;;
75423;SDS011;64005;55.160;36.002;2023-04-06T01:20:15;14.77;;;5.45;;
75423;SDS011;64005;55.160;36.002;2023-04-06T01:22:45;11.98;;;4.40;;
75423;SDS011;64005;55.160;36.002;2023-04-06T01:25:12;10.52;;;4.28;;
75423;SDS011;64005;55.160;36.002;2023-04-06T01:27:40;9.52;;;4.85;;
75423;SDS011;64005;55.160;36.002;2023-04-06T01:30:08;11.65;;;5.07;;
75423;SDS011;64005;55.160;36.002;2023-04-06T01:32:36;11.98;;;4.45;;
75423;SDS011;64005;55.160;36.002;2023-04-06T01:35:03;12.20;;;4.28;;
75423;SDS011;64005;55.160;36.002;2023-04-06T01:37:31;8.98;;;3.97;;
75423;SDS011;64005;55.160;36.002;2023-04-06T01:40:00;11.57;;;4.68;;
75423;SDS011;64005;55.160;36.002;2023-04-06T01:42:29;11.63;;;4.63;;
75423;SDS011;64005;55.160;36.002;2023-04-06T01:44:56;13.82;;;5.30;;
75423;SDS011;64005;55.160;36.002;2023-04-06T01:47:24;12.43;;;4.95;;
75423;SDS011;64005;55.160;36.002;2023-04-06T01:49:51;12.02;;;4.63;;
75423;SDS011;64005;55.160;36.002;2023-04-06T01:52:19;9.45;;;4.57;;
75423;SDS011;64005;55.160;36.002;2023-04-06T01:54:47;11.50;;;4.70;;
75423;SDS011;64005;55.160;36.002;2023-04-06T01:57:16;10.35;;;4.97;;
75423;SDS011;64005;55.160;36.002;2023-04-06T01:59:43;12.02;;;4.78;;
75423;SDS011;64005;55.160;36.002;2023-04-06T02:02:11;12.73;;;4.82;;
75423;SDS011;64005;55.160;36.002;2023-04-06T02:04:42;11.38;;;4.78;;
75423;SDS011;64005;55.160;36.002;2023-04-06T02:07:09;11.18;;;4.60;;
75423;SDS011;64005;55.160;36.002;2023-04-06T02:09:37;11.32;;;5.03;;
75423;SDS011;64005;55.160;36.002;2023-04-06T02:12:05;9.43;;;4.38;;
75423;SDS011;64005;55.160;36.002;2023-04-06T02:14:34;12.55;;;5.53;;
75423;SDS011;64005;55.160;36.002;2023-04-06T02:17:01;13.77;;;5.00;;
75423;SDS011;64005;55.160;36.002;2023-04-06T02:19:29;13.15;;;5.03;;
75423;SDS011;64005;55.160;36.002;2023-04-06T02:21:56;14.23;;;5.00;;
75423;SDS011;64005;55.160;36.002;2023-04-06T02:24:24;13.27;;;5.65;;
75423;SDS011;64005;55.160;36.002;2023-04-06T02:26:51;10.65;;;4.80;;
75423;SDS011;64005;55.160;36.002;2023-04-06T02:29:19;12.50;;;5.10;;
75423;SDS011;64005;55.160;36.002;2023-04-06T02:31:48;12.32;;;5.10;;
75423;SDS011;64005;55.160;36.002;2023-04-06T02:34:16;11.63;;;5.70;;
75423;SDS011;64005;55.160;36.002;2023-04-06T02:36:44;13.18;;;4.28;;
75423;SDS011;64005;55.160;36.002;2023-04-06T02:39:13;12.88;;;5.20;;
75423;SDS011;64005;55.160;36.002;2023-04-06T02:41:41;13.45;;;5.25;;
75423;SDS011;64005;55.160;36.002;2023-04-06T02:44:08;11.57;;;5.00;;
75423;SDS011;64005;55.160;36.002;2023-04-06T02:46:36;12.65;;;5.30;;
75423;SDS011;64005;55.160;36.002;2023-04-06T02:49:05;12.50;;;5.63;;
75423;SDS011;64005;55.160;36.002;2023-04-06T02:51:33;10.70;;;5.25;;
75423;SDS011;64005;55.160;36.002;2023-04-06T02:54:09;11.68;;;4.82;;
75423;SDS011;64005;55.160;36.002;2023-04-06T02:56:36;11.55;;;4.78;;
75423;SDS011;64005;55.160;36.002;2023-04-06T02:59:04;11.65;;;5.65;;
75423;SDS011;64005;55.160;36.002;2023-04-06T03:01:31;14.18;;;5.60;;
75423;SDS011;64005;55.160;36.002;2023-04-06T03:03:59;14.07;;;5.30;;
75423;SDS011;64005;55.160;36.002;2023-04-06T03:06:28;12.30;;;5.65;;
75423;SDS011;64005;55.160;36.002;2023-04-06T03:08:56;13.57;;;5.65;;
75423;SDS011;64005;55.160;36.002;2023-04-06T03:11:23;14.23;;;4.93;;
75423;SDS011;64005;55.160;36.002;2023-04-06T03:13:52;15.18;;;5.32;;
75423;SDS011;64005;55.160;36.002;2023-04-06T03:16:19;11.77;;;5.40;;
75423;SDS011;64005;55.160;36.002;2023-04-06T03:18:47;12.30;;;4.88;;
75423;SDS011;64005;55.160;36.002;2023-04-06T03:21:14;16.92;;;5.43;;
75423;SDS011;64005;55.160;36.002;2023-04-06T03:23:43;13.05;;;5.05;;
75423;SDS011;64005;55.160;36.002;2023-04-06T03:26:11;16.55;;;6.07;;
75423;SDS011;64005;55.160;36.002;2023-04-06T03:28:38;14.65;;;5.90;;
75423;SDS011;64005;55.160;36.002;2023-04-06T03:31:06;13.75;;;5.20;;
75423;SDS011;64005;55.160;36.002;2023-04-06T03:33:33;11.13;;;4.70;;
75423;SDS011;64005;55.160;36.002;2023-04-06T03:36:01;11.63;;;5.13;;
75423;SDS011;64005;55.160;36.002;2023-04-06T03:38:29;11.88;;;5.07;;
75423;SDS011;64005;55.160;36.002;2023-04-06T03:40:58;12.00;;;5.05;;
75423;SDS011;64005;55.160;36.002;2023-04-06T03:43:25;16.35;;;5.15;;
75423;SDS011;64005;55.160;36.002;2023-04-06T03:45:53;12.05;;;5.18;;
75423;SDS011;64005;55.160;36.002;2023-04-06T03:48:20;13.13;;;5.20;;
75423;SDS011;64005;55.160;36.002;2023-04-06T03:50:48;10.75;;;5.10;;
75423;SDS011;64005;55.160;36.002;2023-04-06T03:53:15;11.45;;;4.97;;
75423;SDS011;64005;55.160;36.002;2023-04-06T03:55:43;13.32;;;4.80;;
75423;SDS011;64005;55.160;36.002;2023-04-06T03:58:12;11.50;;;5.30;;
75423;SDS011;64005;55.160;36.002;2023-04-06T04:00:40;12.70;;;4.80;;
75423;SDS011;64005;55.160;36.002;2023-04-06T04:03:07;11.57;;;5.53;;
75423;SDS011;64005;55.160;36.002;2023-04-06T04:05:35;13.38;;;5.40;;
75423;SDS011;64005;55.160;36.002;2023-04-06T04:08:02;12.25;;;5.68;;
75423;SDS011;64005;55.160;36.002;2023-04-06T04:10:30;9.82;;;4.80;;
75423;SDS011;64005;55.160;36.002;2023-04-06T04:12:58;12.20;;;5.32;;
75423;SDS011;64005;55.160;36.002;2023-04-06T04:15:27;11.13;;;4.72;;
75423;SDS011;64005;55.160;36.002;2023-04-06T04:17:54;11.65;;;5.55;;
75423;SDS011;64005;55.160;36.002;2023-04-06T04:20:22;12.95;;;5.38;;
75423;SDS011;64005;55.160;36.002;2023-04-06T04:22:49;11.43;;;5.10;;
75423;SDS011;64005;55.160;36.002;2023-04-06T04:25:17;10.30;;;5.05;;
75423;SDS011;64005;55.160;36.002;2023-04-06T04:27:44;13.63;;;4.90;;
75423;SDS011;64005;55.160;36.002;2023-04-06T04:30:12;11.57;;;5.28;;
75423;SDS011;64005;55.160;36.002;2023-04-06T04:32:41;10.65;;;4.63;;
75423;SDS011;64005;55.160;36.002;2023-04-06T04:35:09;11.45;;;5.30;;
75423;SDS011;64005;55.160;36.002;2023-04-06T04:37:38;14.32;;;4.97;;
75423;SDS011;64005;55.160;36.002;2023-04-06T04:40:08;12.10;;;4.55;;
75423;SDS011;64005;55.160;36.002;2023-04-06T04:42:36;12.20;;;4.57;;
75423;SDS011;64005;55.160;36.002;2023-04-06T04:45:04;12.38;;;4.75;;
75423;SDS011;64005;55.160;36.002;2023-04-06T04:47:32;11.63;;;5.47;;
75423;SDS011;64005;55.160;36.002;2023-04-06T04:50:01;12.57;;;4.85;;
75423;SDS011;64005;55.160;36.002;2023-04-06T04:52:29;11.50;;;4.93;;
75423;SDS011;64005;55.160;36.002;2023-04-06T04:54:56;10.80;;;4.70;;
75423;SDS011;64005;55.160;36.002;2023-04-06T04:57:23;11.18;;;4.90;;
75423;SDS011;64005;55.160;36.002;2023-04-06T04:59:51;12.32;;;5.38;;
75423;SDS011;64005;55.160;36.002;2023-04-06T05:02:18;12.85;;;4.85;;
75423;SDS011;64005;55.160;36.002;2023-04-06T05:04:46;11.27;;;4.75;;
75423;SDS011;64005;55.160;36.002;2023-04-06T05:07:15;10.65;;;4.70;;
75423;SDS011;64005;55.160;36.002;2023-04-06T05:09:44;9.95;;;4.20;;
75423;SDS011;64005;55.160;36.002;2023-04-06T05:12:11;13.38;;;4.60;;
75423;SDS011;64005;55.160;36.002;2023-04-06T05:14:39;11.50;;;5.25;;
75423;SDS011;64005;55.160;36.002;2023-04-06T05:17:06;10.30;;;4.40;;
75423;SDS011;64005;55.160;36.002;2023-04-06T05:19:34;14.88;;;5.22;;
75423;SDS011;64005;55.160;36.002;2023-04-06T05:22:02;10.77;;;4.93;;
75423;SDS011;64005;55.160;36.002;2023-04-06T05:24:31;10.57;;;4.53;;
75423;SDS011;64005;55.160;36.002;2023-04-06T05:27:00;12.68;;;4.63;;
75423;SDS011;64005;55.160;36.002;2023-04-06T05:29:27;9.30;;;4.10;;
75423;SDS011;64005;55.160;36.002;2023-04-06T05:31:55;11.38;;;4.20;;
75423;SDS011;64005;55.160;36.002;2023-04-06T05:34:23;10.07;;;4.55;;
75423;SDS011;64005;55.160;36.002;2023-04-06T05:36:51;9.63;;;4.97;;
75423;SDS011;64005;55.160;36.002;2023-04-06T05:39:18;10.30;;;3.95;;
75423;SDS011;64005;55.160;36.002;2023-04-06T05:41:47;9.88;;;4.65;;
75423;SDS011;64005;55.160;36.002;2023-04-06T05:44:15;9.45;;;4.50;;
75423;SDS011;64005;55.160;36.002;2023-04-06T05:46:43;8.93;;;4.00;;
75423;SDS011;64005;55.160;36.002;2023-04-06T05:49:10;11.75;;;4.72;;
75423;SDS011;64005;55.160;36.002;2023-04-06T05:51:37;7.45;;;3.55;;
75423;SDS011;64005;55.160;36.002;2023-04-06T05:54:05;9.43;;;3.80;;
75423;SDS011;64005;55.160;36.002;2023-04-06T05:56:33;11.77;;;4.65;;
75423;SDS011;64005;55.160;36.002;2023-04-06T05:59:01;10.63;;;3.95;;
75423;SDS011;64005;55.160;36.002;2023-04-06T06:01:29;7.30;;;3.38;;
75423;SDS011;64005;55.160;36.002;2023-04-06T06:03:56;7.85;;;3.42;;
75423;SDS011;64005;55.160;36.002;2023-04-06T06:06:24;8.38;;;3.63;;
75423;SDS011;64005;55.160;36.002;2023-04-06T06:08:52;7.07;;;3.70;;
75423;SDS011;64005;55.160;36.002;2023-04-06T06:11:19;9.88;;;3.10;;
75423;SDS011;64005;55.160;36.002;2023-04-06T06:13:47;7.78;;;3.47;;
75423;SDS011;64005;55.160;36.002;2023-04-06T06:16:16;8.50;;;3.55;;
75423;SDS011;64005;55.160;36.002;2023-04-06T06:18:44;6.93;;;3.38;;
75423;SDS011;64005;55.160;36.002;2023-04-06T06:21:11;8.95;;;3.75;;
75423;SDS011;64005;55.160;36.002;2023-04-06T06:23:39;7.75;;;3.00;;
75423;SDS011;64005;55.160;36.002;2023-04-06T06:26:06;7.32;;;3.22;;
75423;SDS011;64005;55.160;36.002;2023-04-06T06:28:34;8.40;;;2.97;;
75423;SDS011;64005;55.160;36.002;2023-04-06T06:31:01;8.20;;;3.80;;
75423;SDS011;64005;55.160;36.002;2023-04-06T06:33:30;8.20;;;3.20;;
75423;SDS011;64005;55.160;36.002;2023-04-06T06:35:58;8.43;;;2.88;;
75423;SDS011;64005;55.160;36.002;2023-04-06T06:38:25;7.03;;;3.33;;
75423;SDS011;64005;55.160;36.002;2023-04-06T06:40:53;8.45;;;3.25;;
75423;SDS011;64005;55.160;36.002;2023-04-06T06:43:20;7.90;;;3.22;;
75423;SDS011;64005;55.160;36.002;2023-04-06T06:45:48;7.78;;;3.00;;
75423;SDS011;64005;55.160;36.002;2023-04-06T06:48:16;6.55;;;2.70;;
75423;SDS011;64005;55.160;36.002;2023-04-06T06:50:45;8.13;;;3.10;;
75423;SDS011;64005;55.160;36.002;2023-04-06T06:53:14;8.75;;;2.60;;
75423;SDS011;64005;55.160;36.002;2023-04-06T06:55:42;6.97;;;2.72;;
75423;SDS011;64005;55.160;36.002;2023-04-06T06:58:10;8.77;;;2.80;;
75423;SDS011;64005;55.160;36.002;2023-04-06T07:00:38;6.75;;;2.50;;
75423;SDS011;64005;55.160;36.002;2023-04-06T07:03:05;8.32;;;2.92;;
75423;SDS011;64005;55.160;36.002;2023-04-06T07:08:19;8.55;;;3.17;;
75423;SDS011;64005;55.160;36.002;2023-04-06T07:10:47;6.85;;;2.83;;
75423;SDS011;64005;55.160;36.002;2023-04-06T07:16:24;9.52;;;2.95;;
75423;SDS011;64005;55.160;36.002;2023-04-06T07:38:22;7.00;;;2.40;;
75423;SDS011;64005;55.160;36.002;2023-04-06T08:36:57;5.50;;;2.38;;
75423;SDS011;64005;55.160;36.002;2023-04-06T08:42:10;5.38;;;2.13;;
75423;SDS011;64005;55.160;36.002;2023-04-06T08:52:52;6.35;;;1.90;;
75423;SDS011;64005;55.160;36.002;2023-04-06T09:01:12;4.90;;;2.05;;
75423;SDS011;64005;55.160;36.002;2023-04-06T10:22:18;10.05;;;2.72;;
75423;SDS011;64005;55.160;36.002;2023-04-06T11:05:52;7.47;;;1.88;;
75423;SDS011;64005;55.160;36.002;2023-04-06T11:32:22;13.95;;;2.22;;
75423;SDS011;64005;55.160;36.002;2023-04-06T11:53:05;8.27;;;1.98;;
75423;SDS011;64005;55.160;36.002;2023-04-06T11:55:36;7.45;;;2.45;;
75423;SDS011;64005;55.160;36.002;2023-04-06T12:01:19;9.35;;;2.28;;
75423;SDS011;64005;55.160;36.002;2023-04-06T12:42:40;4.47;;;1.55;;
75423;SDS011;64005;55.160;36.002;2023-04-06T13:17:12;4.85;;;2.25;;
75423;SDS011;64005;55.160;36.002;2023-04-06T13:48:05;6.97;;;2.33;;
75423;SDS011;64005;55.160;36.002;2023-04-06T14:25:34;8.30;;;2.15;;
75423;SDS011;64005;55.160;36.002;2023-04-06T14:30:59;5.35;;;2.10;;
75423;SDS011;64005;55.160;36.002;2023-04-06T14:33:30;4.55;;;1.85;;
75423;SDS011;64005;55.160;36.002;2023-04-06T14:36:02;8.40;;;3.17;;
75423;SDS011;64005;55.160;36.002;2023-04-06T14:41:10;6.65;;;2.05;;
75423;SDS011;64005;55.160;36.002;2023-04-06T14:43:45;10.25;;;2.60;;
75423;SDS011;64005;55.160;36.002;2023-04-06T14:49:55;6.78;;;2.42;;
75423;SDS011;64005;55.160;36.002;2023-04-06T14:54:58;8.77;;;2.40;;
75423;SDS011;64005;55.160;36.002;2023-04-06T15:03:22;6.32;;;2.00;;
75423;SDS011;64005;55.160;36.002;2023-04-06T15:05:50;7.10;;;2.92;;
75423;SDS011;64005;55.160;36.002;2023-04-06T15:08:18;6.80;;;2.33;;
75423;SDS011;64005;55.160;36.002;2023-04-06T15:10:46;7.75;;;1.95;;
75423;SDS011;64005;55.160;36.002;2023-04-06T15:16:27;8.48;;;2.47;;
75423;SDS011;64005;55.160;36.002;2023-04-06T15:18:57;11.07;;;2.53;;
75423;SDS011;64005;55.160;36.002;2023-04-06T15:21:25;8.15;;;2.42;;
75423;SDS011;64005;55.160;36.002;2023-04-06T15:23:52;8.43;;;2.00;;
75423;SDS011;64005;55.160;36.002;2023-04-06T15:26:20;9.52;;;2.22;;
75423;SDS011;64005;55.160;36.002;2023-04-06T15:31:23;6.43;;;2.17;;
75423;SDS011;64005;55.160;36.002;2023-04-06T15:33:52;5.70;;;2.22;;
75423;SDS011;64005;55.160;36.002;2023-04-06T15:36:25;8.15;;;2.30;;
75423;SDS011;64005;55.160;36.002;2023-04-06T15:38:55;6.45;;;2.05;;
75423;SDS011;64005;55.160;36.002;2023-04-06T15:41:23;10.68;;;2.50;;
75423;SDS011;64005;55.160;36.002;2023-04-06T15:43:51;6.55;;;2.10;;
75423;SDS011;64005;55.160;36.002;2023-04-06T15:46:19;8.90;;;2.35;;
75423;SDS011;64005;55.160;36.002;2023-04-06T15:48:47;8.05;;;2.38;;
75423;SDS011;64005;55.160;36.002;2023-04-06T15:51:16;10.02;;;2.33;;
75423;SDS011;64005;55.160;36.002;2023-04-06T15:53:43;8.95;;;2.95;;
75423;SDS011;64005;55.160;36.002;2023-04-06T15:56:11;8.80;;;2.28;;
75423;SDS011;64005;55.160;36.002;2023-04-06T15:58:40;8.57;;;2.00;;
75423;SDS011;64005;55.160;36.002;2023-04-06T16:01:11;8.80;;;2.50;;
75423;SDS011;64005;55.160;36.002;2023-04-06T16:03:40;5.95;;;2.15;;
75423;SDS011;64005;55.160;36.002;2023-04-06T16:06:07;4.93;;;1.85;;
75423;SDS011;64005;55.160;36.002;2023-04-06T16:08:37;5.28;;;1.92;;
75423;SDS011;64005;55.160;36.002;2023-04-06T16:11:05;8.30;;;2.35;;
75423;SDS011;64005;55.160;36.002;2023-04-06T16:13:33;10.10;;;2.67;;
75423;SDS011;64005;55.160;36.002;2023-04-06T16:16:00;9.13;;;2.38;;
75423;SDS011;64005;55.160;36.002;2023-04-06T16:18:28;5.97;;;2.15;;
75423;SDS011;64005;55.160;36.002;2023-04-06T16:20:56;7.15;;;2.25;;
75423;SDS011;64005;55.160;36.002;2023-04-06T16:23:24;6.07;;;2.00;;
75423;SDS011;64005;55.160;36.002;2023-04-06T16:25:53;12.18;;;2.58;;
75423;SDS011;64005;55.160;36.002;2023-04-06T16:28:22;6.38;;;2.40;;
75423;SDS011;64005;55.160;36.002;2023-04-06T16:30:50;6.75;;;2.47;;
75423;SDS011;64005;55.160;36.002;2023-04-06T16:33:18;7.60;;;2.30;;
75423;SDS011;64005;55.160;36.002;2023-04-06T16:35:47;7.03;;;2.28;;
75423;SDS011;64005;55.160;36.002;2023-04-06T16:38:15;7.68;;;2.30;;
75423;SDS011;64005;55.160;36.002;2023-04-06T16:40:43;7.38;;;2.05;;
75423;SDS011;64005;55.160;36.002;2023-04-06T16:43:12;11.68;;;2.42;;
75423;SDS011;64005;55.160;36.002;2023-04-06T16:45:39;8.80;;;2.38;;
75423;SDS011;64005;55.160;36.002;2023-04-06T16:48:08;8.50;;;2.65;;
75423;SDS011;64005;55.160;36.002;2023-04-06T16:50:35;9.52;;;2.30;;
75423;SDS011;64005;55.160;36.002;2023-04-06T16:53:03;8.02;;;2.30;;
75423;SDS011;64005;55.160;36.002;2023-04-06T16:55:30;8.27;;;2.58;;
75423;SDS011;64005;55.160;36.002;2023-04-06T16:57:58;8.65;;;1.95;;
75423;SDS011;64005;55.160;36.002;2023-04-06T17:00:28;9.35;;;2.90;;
75423;SDS011;64005;55.160;36.002;2023-04-06T17:02:55;6.80;;;2.33;;
75423;SDS011;64005;55.160;36.002;2023-04-06T17:05:23;7.55;;;2.42;;
75423;SDS011;64005;55.160;36.002;2023-04-06T17:07:52;7.05;;;2.33;;
75423;SDS011;64005;55.160;36.002;2023-04-06T17:10:19;7.78;;;2.25;;
75423;SDS011;64005;55.160;36.002;2023-04-06T17:12:47;14.32;;;2.65;;
75423;SDS011;64005;55.160;36.002;2023-04-06T17:15:15;8.15;;;2.75;;
75423;SDS011;64005;55.160;36.002;2023-04-06T17:17:44;8.65;;;3.03;;
75423;SDS011;64005;55.160;36.002;2023-04-06T17:20:12;8.30;;;3.45;;
75423;SDS011;64005;55.160;36.002;2023-04-06T17:22:39;7.30;;;2.78;;
75423;SDS011;64005;55.160;36.002;2023-04-06T17:25:07;13.13;;;3.47;;
75423;SDS011;64005;55.160;36.002;2023-04-06T17:27:35;13.77;;;2.92;;
75423;SDS011;64005;55.160;36.002;2023-04-06T17:30:03;8.60;;;2.45;;
75423;SDS011;64005;55.160;36.002;2023-04-06T17:32:32;7.22;;;2.38;;
75423;SDS011;64005;55.160;36.002;2023-04-06T17:35:01;10.43;;;2.55;;
75423;SDS011;64005;55.160;36.002;2023-04-06T17:37:31;7.85;;;2.22;;
75423;SDS011;64005;55.160;36.002;2023-04-06T17:39:58;6.97;;;2.22;;
75423;SDS011;64005;55.160;36.002;2023-04-06T17:42:26;7.35;;;2.10;;
75423;SDS011;64005;55.160;36.002;2023-04-06T17:44:53;6.97;;;2.40;;
75423;SDS011;64005;55.160;36.002;2023-04-06T17:47:21;9.07;;;2.42;;
75423;SDS011;64005;55.160;36.002;2023-04-06T17:49:50;7.53;;;2.40;;
75423;SDS011;64005;55.160;36.002;2023-04-06T17:52:19;5.82;;;2.65;;
75423;SDS011;64005;55.160;36.002;2023-04-06T17:54:46;6.40;;;2.20;;
75423;SDS011;64005;55.160;36.002;2023-04-06T17:57:16;8.68;;;2.65;;
75423;SDS011;64005;55.160;36.002;2023-04-06T17:59:44;7.47;;;2.63;;
75423;SDS011;64005;55.160;36.002;2023-04-06T18:02:11;7.72;;;2.40;;
75423;SDS011;64005;55.160;36.002;2023-04-06T18:04:39;13.13;;;3.00;;
75423;SDS011;64005;55.160;36.002;2023-04-06T18:07:08;7.18;;;2.42;;
75423;SDS011;64005;55.160;36.002;2023-04-06T18:09:37;6.95;;;2.58;;
75423;SDS011;64005;55.160;36.002;2023-04-06T18:12:05;6.28;;;2.75;;
75423;SDS011;64005;55.160;36.002;2023-04-06T18:14:33;7.47;;;2.38;;
75423;SDS011;64005;55.160;36.002;2023-04-06T18:17:01;6.32;;;2.03;;
75423;SDS011;64005;55.160;36.002;2023-04-06T18:19:29;6.93;;;2.50;;
75423;SDS011;64005;55.160;36.002;2023-04-06T18:21:58;5.07;;;2.15;;
75423;SDS011;64005;55.160;36.002;2023-04-06T18:24:26;8.18;;;2.33;;
75423;SDS011;64005;55.160;36.002;2023-04-06T18:26:56;7.43;;;2.17;;
75423;SDS011;64005;55.160;36.002;2023-04-06T18:29:24;8.30;;;2.45;;
75423;SDS011;64005;55.160;36.002;2023-04-06T18:31:51;5.65;;;1.92;;
75423;SDS011;64005;55.160;36.002;2023-04-06T18:34:19;6.05;;;2.10;;
75423;SDS011;64005;55.160;36.002;2023-04-06T18:36:47;6.80;;;1.75;;
75423;SDS011;64005;55.160;36.002;2023-04-06T18:39:14;5.88;;;1.85;;
75423;SDS011;64005;55.160;36.002;2023-04-06T18:41:42;7.93;;;1.92;;
75423;SDS011;64005;55.160;36.002;2023-04-06T18:44:11;6.72;;;1.88;;
75423;SDS011;64005;55.160;36.002;2023-04-06T18:46:39;5.13;;;1.67;;
75423;SDS011;64005;55.160;36.002;2023-04-06T18:49:09;7.40;;;1.73;;
75423;SDS011;64005;55.160;36.002;2023-04-06T18:51:36;6.43;;;2.08;;
75423;SDS011;64005;55.160;36.002;2023-04-06T18:54:05;5.20;;;1.70;;
75423;SDS011;64005;55.160;36.002;2023-04-06T18:56:33;6.70;;;1.90;;
75423;SDS011;64005;55.160;36.002;2023-04-06T18:59:03;6.00;;;1.90;;
75423;SDS011;64005;55.160;36.002;2023-04-06T19:01:32;3.92;;;1.63;;
75423;SDS011;64005;55.160;36.002;2023-04-06T19:03:59;12.43;;;2.20;;
75423;SDS011;64005;55.160;36.002;2023-04-06T19:06:27;6.68;;;1.98;;
75423;SDS011;64005;55.160;36.002;2023-04-06T19:08:55;4.40;;;2.00;;
75423;SDS011;64005;55.160;36.002;2023-04-06T19:11:23;6.63;;;1.90;;
75423;SDS011;64005;55.160;36.002;2023-04-06T19:13:52;6.40;;;1.85;;
75423;SDS011;64005;55.160;36.002;2023-04-06T19:16:19;5.13;;;1.90;;
75423;SDS011;64005;55.160;36.002;2023-04-06T19:18:49;5.05;;;1.90;;
75423;SDS011;64005;55.160;36.002;2023-04-06T19:21:17;7.20;;;2.03;;
75423;SDS011;64005;55.160;36.002;2023-04-06T19:23:46;7.57;;;1.80;;
75423;SDS011;64005;55.160;36.002;2023-04-06T19:26:15;7.05;;;1.95;;
75423;SDS011;64005;55.160;36.002;2023-04-06T19:28:44;9.35;;;1.85;;
75423;SDS011;64005;55.160;36.002;2023-04-06T19:31:13;5.38;;;1.77;;
75423;SDS011;64005;55.160;36.002;2023-04-06T19:33:42;5.82;;;1.73;;
75423;SDS011;64005;55.160;36.002;2023-04-06T19:36:11;7.22;;;1.80;;
75423;SDS011;64005;55.160;36.002;2023-04-06T19:38:40;4.45;;;1.50;;
75423;SDS011;64005;55.160;36.002;2023-04-06T19:41:07;5.13;;;1.63;;
75423;SDS011;64005;55.160;36.002;2023-04-06T19:43:35;5.88;;;2.00;;
75423;SDS011;64005;55.160;36.002;2023-04-06T19:46:02;5.57;;;1.55;;
75423;SDS011;64005;55.160;36.002;2023-04-06T19:48:30;5.97;;;2.00;;
75423;SDS011;64005;55.160;36.002;2023-04-06T19:50:58;6.82;;;1.50;;
75423;SDS011;64005;55.160;36.002;2023-04-06T19:53:27;10.38;;;1.95;;
75423;SDS011;64005;55.160;36.002;2023-04-06T19:55:55;4.32;;;1.88;;
75423;SDS011;64005;55.160;36.002;2023-04-06T19:58:22;5.72;;;1.98;;
75423;SDS011;64005;55.160;36.002;2023-04-06T20:00:50;4.93;;;1.70;;
75423;SDS011;64005;55.160;36.002;2023-04-06T20:03:17;5.05;;;1.70;;
75423;SDS011;64005;55.160;36.002;2023-04-06T20:05:45;7.45;;;1.98;;
75423;SDS011;64005;55.160;36.002;2023-04-06T20:08:12;4.45;;;1.50;;
75423;SDS011;64005;55.160;36.002;2023-04-06T20:10:41;7.00;;;1.85;;
75423;SDS011;64005;55.160;36.002;2023-04-06T20:13:09;4.05;;;1.40;;
75423;SDS011;64005;55.160;36.002;2023-04-06T20:15:36;5.38;;;1.73;;
75423;SDS011;64005;55.160;36.002;2023-04-06T20:18:04;7.38;;;1.92;;
75423;SDS011;64005;55.160;36.002;2023-04-06T20:20:31;5.32;;;1.80;;
75423;SDS011;64005;55.160;36.002;2023-04-06T20:22:59;4.70;;;1.80;;
75423;SDS011;64005;55.160;36.002;2023-04-06T20:25:26;7.63;;;2.22;;
75423;SDS011;64005;55.160;36.002;2023-04-06T20:27:55;6.07;;;1.90;;
75423;SDS011;64005;55.160;36.002;2023-04-06T20:30:23;7.25;;;2.08;;
75423;SDS011;64005;55.160;36.002;2023-04-06T20:32:50;9.30;;;2.10;;
75423;SDS011;64005;55.160;36.002;2023-04-06T20:35:18;7.20;;;1.88;;
75423;SDS011;64005;55.160;36.002;2023-04-06T20:37:45;9.95;;;2.35;;
75423;SDS011;64005;55.160;36.002;2023-04-06T20:40:13;10.90;;;2.33;;
75423;SDS011;64005;55.160;36.002;2023-04-06T20:42:41;8.77;;;2.33;;
75423;SDS011;64005;55.160;36.002;2023-04-06T20:45:10;5.53;;;1.90;;
75423;SDS011;64005;55.160;36.002;2023-04-06T20:47:38;5.35;;;1.77;;
75423;SDS011;64005;55.160;36.002;2023-04-06T20:50:05;4.97;;;2.03;;
75423;SDS011;64005;55.160;36.002;2023-04-06T20:52:34;7.90;;;2.00;;
75423;SDS011;64005;55.160;36.002;2023-04-06T20:55:02;5.55;;;1.80;;
75423;SDS011;64005;55.160;36.002;2023-04-06T20:57:30;6.93;;;1.60;;
75423;SDS011;64005;55.160;36.002;2023-04-06T20:59:58;5.00;;;1.40;;
75423;SDS011;64005;55.160;36.002;2023-04-06T21:02:27;4.40;;;1.70;;
75423;SDS011;64005;55.160;36.002;2023-04-06T21:04:54;4.97;;;1.58;;
75423;SDS011;64005;55.160;36.002;2023-04-06T21:07:22;5.00;;;1.58;;
75423;SDS011;64005;55.160;36.002;2023-04-06T21:09:50;9.82;;;1.83;;
75423;SDS011;64005;55.160;36.002;2023-04-06T21:12:17;4.28;;;1.80;;
75423;SDS011;64005;55.160;36.002;2023-04-06T21:14:45;4.00;;;1.25;;
75423;SDS011;64005;55.160;36.002;2023-04-06T21:17:12;4.00;;;1.33;;
75423;SDS011;64005;55.160;36.002;2023-04-06T21:19:41;5.03;;;1.38;;
75423;SDS011;64005;55.160;36.002;2023-04-06T21:22:09;2.72;;;1.13;;
75423;SDS011;64005;55.160;36.002;2023-04-06T21:24:36;5.00;;;1.67;;
75423;SDS011;64005;55.160;36.002;2023-04-06T21:27:04;5.57;;;1.50;;
75423;SDS011;64005;55.160;36.002;2023-04-06T21:29:31;8.65;;;1.80;;
75423;SDS011;64005;55.160;36.002;2023-04-06T21:31:59;6.15;;;1.45;;
75423;SDS011;64005;55.160;36.002;2023-04-06T21:34:26;6.53;;;1.67;;